createdAt,value
2023-02-22T00:00:36.874Z,79.22
2023-02-22T00:04:49.243Z,79.22
2023-02-22T00:09:03.950Z,80.27
2023-02-22T00:13:16.473Z,80.78
2023-02-22T00:17:30.755Z,80.58
2023-02-22T00:21:45.152Z,79.68
2023-02-22T00:25:59.400Z,79.91
2023-02-22T00:30:19.379Z,80.08
2023-02-22T00:34:32.095Z,79.96
2023-02-22T00:38:44.650Z,81.29
2023-02-22T00:42:58.582Z,81.19
2023-02-22T00:47:11.405Z,81.91
2023-02-22T00:51:29.050Z,82.19
2023-02-22T00:55:41.547Z,80.63
2023-02-22T00:59:54.145Z,79.64
2023-02-22T01:04:07.148Z,80.25
2023-02-22T01:08:19.852Z,80.05
2023-02-22T01:12:36.147Z,81.45
2023-02-22T01:16:51.259Z,82.67
2023-02-22T01:21:06.932Z,82.97
2023-02-22T01:25:24.090Z,83.73
2023-02-22T01:29:36.392Z,84.28
2023-02-22T01:33:54.010Z,83.73
2023-02-22T01:38:07.080Z,83.34
2023-02-22T01:42:20.332Z,83.86
2023-02-22T01:46:34.072Z,82.62
2023-02-22T01:51:12.849Z,81.49
2023-02-22T01:55:26.012Z,80.63
2023-02-22T01:59:42.246Z,79.96
2023-02-22T02:03:58.590Z,78.42
2023-02-22T02:08:59.030Z,78.03
2023-02-22T02:13:11.695Z,76.08
2023-02-22T02:17:24.383Z,75.58
2023-02-22T02:22:08.901Z,76.84
2023-02-22T02:26:39.971Z,77.37
2023-02-22T02:31:09.781Z,77.47
2023-02-22T02:35:34.788Z,76.60
2023-02-22T02:40:18.527Z,77.13
2023-02-22T02:45:02.959Z,76.79
2023-02-22T02:49:47.691Z,77.81
2023-02-22T02:54:02.286Z,77.85
2023-02-22T02:58:22.261Z,79.20
2023-02-22T03:02:43.447Z,79.31
2023-02-22T03:07:13.585Z,77.39
2023-02-22T03:11:36.957Z,77.41
2023-02-22T03:16:09.776Z,77.48
2023-02-22T03:20:37.913Z,75.96
2023-02-22T03:24:56.188Z,75.53
2023-02-22T03:29:13.730Z,74.76
2023-02-22T03:33:36.636Z,74.29
2023-02-22T03:37:54.154Z,75.27
2023-02-22T03:42:15.954Z,75.76
2023-02-22T03:46:29.877Z,73.92
2023-02-22T03:50:51.448Z,73.59
2023-02-22T03:55:11.335Z,73.65
2023-02-22T03:59:27.837Z,73.83
2023-02-22T04:03:40.648Z,74.31
2023-02-22T04:07:57.650Z,74.97
2023-02-22T04:12:10.374Z,74.08
2023-02-22T04:16:37.540Z,73.99
2023-02-22T04:20:53.383Z,74.09
2023-02-22T04:25:34.989Z,75.21
2023-02-22T04:29:57.352Z,74.50
2023-02-22T04:34:09.920Z,74.95
2023-02-22T04:38:26.778Z,75.71
2023-02-22T04:42:41.106Z,74.86
2023-02-22T04:46:53.711Z,75.24
2023-02-22T04:51:06.678Z,76.70
2023-02-22T04:55:19.277Z,76.82
2023-02-22T04:59:33.250Z,76.89
2023-02-22T05:03:47.708Z,77.79
2023-02-22T05:08:00.097Z,78.26
2023-02-22T05:12:12.730Z,78.33
2023-02-22T05:16:25.283Z,78.50
2023-02-22T05:20:37.583Z,79.98
2023-02-22T05:24:49.884Z,81.00
2023-02-22T05:29:02.596Z,81.79
2023-02-22T05:33:14.873Z,80.48
2023-02-22T05:37:27.735Z,80.80
2023-02-22T05:41:40.238Z,79.80
2023-02-22T05:45:54.211Z,79.91
2023-02-22T05:50:07.860Z,80.04
2023-02-22T05:54:20.435Z,79.21
2023-02-22T05:58:32.842Z,76.48
2023-02-22T06:02:45.594Z,74.55
2023-02-22T06:06:58.091Z,75.15
2023-02-22T06:11:10.992Z,73.60
2023-02-22T06:15:25.060Z,73.28
2023-02-22T06:19:37.491Z,72.03
2023-02-22T06:23:49.750Z,72.29
2023-02-22T06:28:02.242Z,71.59
2023-02-22T06:32:16.662Z,71.07
2023-02-22T06:36:29.658Z,70.19
2023-02-22T06:40:41.997Z,71.80
2023-02-22T06:44:54.388Z,68.83
2023-02-22T06:49:06.926Z,67.82
2023-02-22T06:53:19.316Z,66.69
2023-02-22T06:57:31.617Z,66.09
2023-02-22T07:01:45.914Z,64.86
2023-02-22T07:05:58.316Z,64.13
2023-02-22T07:10:24.105Z,63.58
2023-02-22T07:14:38.526Z,62.95
2023-02-22T07:18:50.931Z,64.48
2023-02-22T07:23:03.750Z,63.28
2023-02-22T07:27:16.108Z,62.30
2023-02-22T07:31:29.709Z,61.32
2023-02-22T07:35:47.516Z,63.31
2023-02-22T07:39:59.941Z,62.29
2023-02-22T07:44:13.657Z,60.62
2023-02-22T07:48:28.443Z,59.65
2023-02-22T07:52:40.833Z,60.86
2023-02-22T07:56:54.166Z,61.35
2023-02-22T08:01:06.605Z,60.40
2023-02-22T08:05:19.601Z,60.41
2023-02-22T08:09:31.881Z,60.31
2023-02-22T08:13:44.355Z,59.41
2023-02-22T08:17:58.463Z,61.20
2023-02-22T08:22:10.845Z,59.36
2023-02-22T08:26:24.139Z,59.32
2023-02-22T08:30:40.226Z,59.76
2023-02-22T08:34:53.176Z,59.87
2023-02-22T08:39:05.560Z,58.43
2023-02-22T08:43:19.925Z,58.85
2023-02-22T08:47:32.344Z,57.42
2023-02-22T08:51:44.762Z,58.13
2023-02-22T08:55:57.220Z,56.98
2023-02-22T09:00:10.366Z,57.51
2023-02-22T09:04:22.796Z,58.14
2023-02-22T09:08:36.665Z,57.44
2023-02-22T09:12:49.056Z,58.67
2023-02-22T09:17:03.079Z,57.34
2023-02-22T09:21:17.388Z,57.82
2023-02-22T09:25:30.559Z,57.92
2023-02-22T09:29:43.790Z,57.66
2023-02-22T09:33:56.239Z,55.82
2023-02-22T09:38:10.705Z,56.25
2023-02-22T09:42:42.707Z,54.38
2023-02-22T09:46:59.137Z,53.39
2023-02-22T09:51:18.529Z,53.35
2023-02-22T09:55:35.981Z,54.16
2023-02-22T10:00:13.302Z,54.69
2023-02-22T10:04:36.312Z,55.30
2023-02-22T10:08:54.115Z,53.40
2023-02-22T10:13:27.735Z,53.83
2023-02-22T10:18:19.782Z,51.60
2023-02-22T10:22:38.727Z,52.45
2023-02-22T10:26:52.231Z,53.14
2023-02-22T10:31:09.143Z,51.43
2023-02-22T10:35:26.942Z,50.25
2023-02-22T10:39:40.380Z,50.02
2023-02-22T10:43:52.821Z,48.19
2023-02-22T10:48:11.853Z,50.04
2023-02-22T10:52:28.465Z,50.48
2023-02-22T10:56:52.893Z,48.27
2023-02-22T11:01:20.878Z,50.21
2023-02-22T11:05:37.706Z,49.94
2023-02-22T11:10:02.080Z,48.30
2023-02-22T11:14:27.010Z,50.10
2023-02-22T11:18:39.567Z,48.71
2023-02-22T11:23:01.319Z,48.25
2023-02-22T11:27:29.065Z,48.77
2023-02-22T11:31:44.728Z,48.01
2023-02-22T11:35:59.734Z,47.63
2023-02-22T11:40:23.033Z,49.12
2023-02-22T11:44:35.730Z,48.91
2023-02-22T11:49:12.183Z,48.69
2023-02-22T11:53:44.556Z,47.39
2023-02-22T11:58:22.102Z,45.49
2023-02-22T12:02:57.568Z,47.50
2023-02-22T12:07:44.902Z,47.60
2023-02-22T12:12:18.904Z,44.95
2023-02-22T12:17:08.172Z,41.01
2023-02-22T12:21:24.757Z,34.87
2023-02-22T12:25:41.895Z,36.04
2023-02-22T12:30:29.256Z,37.26
2023-02-22T12:34:50.886Z,41.58
2023-02-22T12:39:12.018Z,41.99
2023-02-22T12:43:41.507Z,44.01
2023-02-22T12:48:18.928Z,45.40
2023-02-22T12:53:00.847Z,46.51
2023-02-22T12:57:44.967Z,46.89
2023-02-22T13:02:10.187Z,46.86
2023-02-22T13:06:35.360Z,47.19
2023-02-22T13:11:09.224Z,48.22
2023-02-22T13:15:30.358Z,47.98
2023-02-22T13:19:56.187Z,47.67
2023-02-22T13:24:26.495Z,47.56
2023-02-22T13:28:47.572Z,48.46
2023-02-22T13:33:14.988Z,49.87
2023-02-22T13:37:46.233Z,49.36
2023-02-22T13:42:14.385Z,50.32
2023-02-22T13:46:44.710Z,50.29
2023-02-22T13:51:11.965Z,51.82
2023-02-22T13:55:30.273Z,51.22
2023-02-22T13:59:42.735Z,50.99
2023-02-22T14:04:29.766Z,51.68
2023-02-22T14:08:42.706Z,52.54
2023-02-22T14:13:05.153Z,52.15
2023-02-22T14:17:35.278Z,51.84
2023-02-22T14:21:58.122Z,53.02
2023-02-22T14:26:16.751Z,54.45
2023-02-22T14:30:32.299Z,54.99
2023-02-22T14:34:54.368Z,54.72
2023-02-22T14:39:21.201Z,55.45
2023-02-22T14:43:36.934Z,55.77
2023-02-22T14:48:04.163Z,55.59
2023-02-22T14:52:30.804Z,56.57
2023-02-22T14:56:51.217Z,57.62
2023-02-22T15:01:20.369Z,57.95
2023-02-22T15:05:39.386Z,58.23
2023-02-22T15:09:54.390Z,59.00
2023-02-22T15:14:27.040Z,58.74
2023-02-22T15:18:45.304Z,58.63
2023-02-22T15:23:00.854Z,59.20
2023-02-22T15:27:20.081Z,59.24
2023-02-22T15:31:35.453Z,59.84
2023-02-22T15:35:55.066Z,60.67
2023-02-22T15:40:17.766Z,60.12
2023-02-22T15:44:36.055Z,60.51
2023-02-22T15:49:06.870Z,60.34
2023-02-22T15:53:27.210Z,60.80
2023-02-22T15:57:39.672Z,61.00
2023-02-22T16:01:54.223Z,61.26
2023-02-22T16:06:13.243Z,61.04
2023-02-22T16:10:30.243Z,61.03
2023-02-22T16:14:45.093Z,61.66
2023-02-22T16:19:24.682Z,62.07
2023-02-22T16:23:52.907Z,61.98
2023-02-22T16:28:32.132Z,63.16
2023-02-22T16:32:45.767Z,63.44
2023-02-22T16:36:58.810Z,63.93
2023-02-22T16:41:11.312Z,64.88
2023-02-22T16:45:23.616Z,66.07
2023-02-22T16:49:36.732Z,66.03
2023-02-22T16:53:50.238Z,66.79
2023-02-22T16:58:03.293Z,67.72
2023-02-22T17:02:16.893Z,68.33
2023-02-22T17:06:30.141Z,69.18
2023-02-22T17:10:42.906Z,69.55
2023-02-22T17:14:55.830Z,70.32
2023-02-22T17:19:16.748Z,71.60
2023-02-22T17:23:30.841Z,71.74
2023-02-22T17:27:43.194Z,72.10
2023-02-22T17:31:56.122Z,72.77
2023-02-22T17:36:08.728Z,73.23
2023-02-22T17:40:22.637Z,74.68
2023-02-22T17:44:35.589Z,74.62
2023-02-22T17:48:50.981Z,75.43
2023-02-22T17:53:03.685Z,76.28
2023-02-22T17:57:16.043Z,77.32
2023-02-22T18:01:31.119Z,78.79
2023-02-22T18:05:46.675Z,78.51
2023-02-22T18:09:59.677Z,78.81
2023-02-22T18:14:12.596Z,79.00
2023-02-22T18:18:25.082Z,79.37
2023-02-22T18:22:38.360Z,80.32
2023-02-22T18:26:51.046Z,80.69
2023-02-22T18:31:10.456Z,81.69
2023-02-22T18:35:24.728Z,83.49
2023-02-22T18:39:43.005Z,84.04
2023-02-22T18:43:58.223Z,84.47
2023-02-22T18:48:10.878Z,84.98
2023-02-22T18:52:24.210Z,85.66
2023-02-22T18:56:36.698Z,85.46
2023-02-22T19:00:49.779Z,84.31
2023-02-22T19:05:02.931Z,85.53
2023-02-22T19:09:17.841Z,86.09
2023-02-22T19:13:31.473Z,86.24
2023-02-22T19:17:44.016Z,87.11
2023-02-22T19:21:56.660Z,84.89
2023-02-22T19:26:10.067Z,82.10
2023-02-22T19:30:23.928Z,82.67
2023-02-22T19:34:37.360Z,84.10
2023-02-22T19:38:50.023Z,83.39
2023-02-22T19:43:02.639Z,83.40
2023-02-22T19:47:15.143Z,83.44
2023-02-22T19:51:29.083Z,81.54
2023-02-22T19:55:41.602Z,81.10
2023-02-22T19:59:55.097Z,81.69
2023-02-22T20:04:10.609Z,81.58
2023-02-22T20:08:23.119Z,81.57
2023-02-22T20:12:37.663Z,81.61
2023-02-22T20:16:51.812Z,77.14
2023-02-22T20:21:09.801Z,77.68
2023-02-22T20:25:22.282Z,78.74
2023-02-22T20:29:35.788Z,79.09
2023-02-22T20:33:49.967Z,79.40
2023-02-22T20:38:03.161Z,79.94
2023-02-22T20:42:15.846Z,80.84
2023-02-22T20:46:31.751Z,80.57
2023-02-22T20:50:44.438Z,79.23
2023-02-22T20:54:57.831Z,78.23
2023-02-22T20:59:15.832Z,77.32
2023-02-22T21:03:28.314Z,77.60
2023-02-22T21:07:41.059Z,77.04
2023-02-22T21:11:53.652Z,76.67
2023-02-22T21:16:08.619Z,76.47
2023-02-22T21:20:22.280Z,77.32
2023-02-22T21:24:36.782Z,78.22
2023-02-22T21:28:51.373Z,78.80
2023-02-22T21:33:04.102Z,78.28
2023-02-22T21:37:18.482Z,77.87
2023-02-22T21:41:31.599Z,78.46
2023-02-22T21:45:44.205Z,77.83
2023-02-22T21:49:56.589Z,78.17
2023-02-22T21:54:12.339Z,78.74
2023-02-22T21:58:24.731Z,79.10
2023-02-22T22:02:38.392Z,79.23
2023-02-22T22:06:53.863Z,79.20
2023-02-22T22:11:09.542Z,78.80
2023-02-22T22:15:23.825Z,78.63
2023-02-22T22:19:41.907Z,79.08
2023-02-22T22:23:56.359Z,79.10
2023-02-22T22:28:11.602Z,78.73
2023-02-22T22:32:26.883Z,79.53
2023-02-22T22:36:39.352Z,78.97
2023-02-22T22:40:53.212Z,79.78
2023-02-22T22:45:06.019Z,79.80
2023-02-22T22:49:18.743Z,80.89
2023-02-22T22:53:32.263Z,80.31
2023-02-22T22:57:44.786Z,79.52
2023-02-22T23:01:57.217Z,79.15
2023-02-22T23:06:13.587Z,79.85
2023-02-22T23:10:28.584Z,79.22
2023-02-22T23:14:44.436Z,79.08
2023-02-22T23:18:56.913Z,79.76
2023-02-22T23:23:15.032Z,79.27
2023-02-22T23:27:28.386Z,80.30
2023-02-22T23:31:41.459Z,79.56
2023-02-22T23:35:53.906Z,79.63
2023-02-22T23:40:19.697Z,79.69
2023-02-22T23:44:32.709Z,79.49
2023-02-22T23:48:51.081Z,78.58
2023-02-22T23:53:06.277Z,78.02
2023-02-22T23:57:19.866Z,77.12
